Time;durP1;ratioP1;P1;durP2;ratioP2;P2;SDS_P1;SDS_P2;PMS_P1;PMS_P2;Temp;Humidity;BMP_temperature;BMP_pressure;BME280_temperature;BME280_humidity;BME280_pressure;Samples;Min_cycle;Max_cycle;Signal;HPM_P1;HPM_P2
2021/08/21 00:00:55;;;;;;;5.45;1.08;;;;;;;;;;4983471;28;20041;-58
2021/08/21 00:03:20;;;;;;;1.88;0.47;;;;;;;;;;4988193;28;20065;-57
2021/08/21 00:05:46;;;;;;;3.10;0.43;;;;;;;;;;4985491;28;20046;-58
2021/08/21 00:08:12;;;;;;;2.88;0.60;;;;;;;;;;4980194;28;20560;-58
2021/08/21 00:10:38;;;;;;;3.60;0.73;;;;;;;;;;4984647;28;20681;-57
2021/08/21 00:13:04;;;;;;;1.45;0.47;;;;;;;;;;4985348;28;20424;-58
2021/08/21 00:15:29;;;;;;;1.42;0.50;;;;;;;;;;4986504;28;20112;-58
2021/08/21 00:17:58;;;;;;;2.13;0.77;;;;;;;;;;4986701;28;20109;-58
2021/08/21 00:20:23;;;;;;;1.98;0.80;;;;;;;;;;4987749;28;20033;-58
2021/08/21 00:22:49;;;;;;;3.90;1.27;;;;;;;;;;4983878;28;20042;-56
2021/08/21 00:25:15;;;;;;;2.97;1.10;;;;;;;;;;4985682;28;20037;-57
2021/08/21 00:27:42;;;;;;;4.15;1.40;;;;;;;;;;4988734;28;20031;-58
2021/08/21 00:30:08;;;;;;;4.78;1.42;;;;;;;;;;4977999;28;20054;-57
2021/08/21 00:32:34;;;;;;;2.80;1.17;;;;;;;;;;4983428;28;20117;-58
2021/08/21 00:35:00;;;;;;;4.80;1.17;;;;;;;;;;4986750;28;20117;-57
2021/08/21 00:37:26;;;;;;;3.97;1.67;;;;;;;;;;4978086;28;20035;-57
2021/08/21 00:39:51;;;;;;;4.38;1.42;;;;;;;;;;4986146;28;20030;-57
2021/08/21 00:42:17;;;;;;;4.15;1.50;;;;;;;;;;4983287;28;20034;-58
2021/08/21 00:44:43;;;;;;;5.20;1.48;;;;;;;;;;4979337;28;20709;-58
2021/08/21 00:47:12;;;;;;;6.20;1.90;;;;;;;;;;4983229;28;20130;-58
2021/08/21 00:49:41;;;;;;;5.10;1.88;;;;;;;;;;4979320;28;20030;-58
2021/08/21 00:52:08;;;;;;;6.78;2.03;;;;;;;;;;4985210;28;20084;-58
2021/08/21 00:54:34;;;;;;;6.25;1.95;;;;;;;;;;4978657;28;20117;-58
2021/08/21 00:57:10;;;;;;;8.73;1.90;;;;;;;;;;4979767;28;20069;-58
2021/08/21 00:59:37;;;;;;;7.07;1.98;;;;;;;;;;4977813;28;20096;-58
2021/08/21 01:02:07;;;;;;;7.43;1.85;;;;;;;;;;4985392;28;20026;-58
2021/08/21 01:04:35;;;;;;;7.55;2.00;;;;;;;;;;4975390;28;20576;-58
2021/08/21 01:07:08;;;;;;;5.85;2.00;;;;;;;;;;4984262;28;20037;-58
2021/08/21 01:09:38;;;;;;;5.43;2.10;;;;;;;;;;4982337;28;20164;-59
2021/08/21 01:12:10;;;;;;;3.90;1.63;;;;;;;;;;4979866;28;20030;-59
2021/08/21 01:14:36;;;;;;;4.75;1.90;;;;;;;;;;4984094;28;20035;-58
2021/08/21 01:17:04;;;;;;;4.32;1.63;;;;;;;;;;4982869;28;20034;-58
2021/08/21 01:19:32;;;;;;;6.25;2.10;;;;;;;;;;4974999;28;20035;-58
2021/08/21 01:21:58;;;;;;;14.80;3.15;;;;;;;;;;4977349;28;20141;-58
2021/08/21 01:24:24;;;;;;;3.53;1.58;;;;;;;;;;4978455;28;20552;-58
2021/08/21 01:26:54;;;;;;;4.82;1.80;;;;;;;;;;4976272;28;20038;-59
2021/08/21 01:29:19;;;;;;;3.83;1.48;;;;;;;;;;4978875;28;20038;-58
2021/08/21 01:31:46;;;;;;;5.05;1.98;;;;;;;;;;4980323;28;20474;-58
2021/08/21 01:34:12;;;;;;;3.88;1.77;;;;;;;;;;4975393;28;20034;-58
2021/08/21 01:36:40;;;;;;;4.75;1.92;;;;;;;;;;4978126;28;20061;-59
2021/08/21 01:39:05;;;;;;;6.38;2.20;;;;;;;;;;4981766;28;20030;-58
2021/08/21 01:41:31;;;;;;;7.97;1.95;;;;;;;;;;4983853;28;20038;-58
2021/08/21 01:43:56;;;;;;;8.98;2.25;;;;;;;;;;4980173;28;20046;-58
2021/08/21 01:46:21;;;;;;;5.40;1.80;;;;;;;;;;4979104;28;20138;-58
2021/08/21 01:48:47;;;;;;;5.10;2.13;;;;;;;;;;4983478;28;20042;-58
2021/08/21 01:51:13;;;;;;;4.40;2.10;;;;;;;;;;4984575;28;20038;-58
2021/08/21 01:53:38;;;;;;;6.28;2.15;;;;;;;;;;4982237;28;20501;-59
2021/08/21 01:56:03;;;;;;;6.47;1.95;;;;;;;;;;4979484;28;20045;-58
2021/08/21 01:58:29;;;;;;;5.93;2.00;;;;;;;;;;4977048;28;20548;-59
2021/08/21 02:00:55;;;;;;;5.75;2.03;;;;;;;;;;4977654;28;20068;-58
2021/08/21 02:03:20;;;;;;;6.28;1.98;;;;;;;;;;4980641;28;20027;-58
2021/08/21 02:05:46;;;;;;;10.10;2.15;;;;;;;;;;4977215;28;20038;-58
2021/08/21 02:08:11;;;;;;;5.82;2.05;;;;;;;;;;4978873;28;20509;-58
2021/08/21 02:10:37;;;;;;;8.25;1.73;;;;;;;;;;4979032;28;20089;-58
2021/08/21 02:13:03;;;;;;;3.85;1.60;;;;;;;;;;4983449;28;20052;-58
2021/08/21 02:15:28;;;;;;;7.43;2.30;;;;;;;;;;4975361;28;20037;-58
2021/08/21 02:17:54;;;;;;;7.32;1.83;;;;;;;;;;4976881;28;20551;-58
2021/08/21 02:20:19;;;;;;;3.35;1.67;;;;;;;;;;4981407;28;20065;-58
2021/08/21 02:22:46;;;;;;;6.88;2.13;;;;;;;;;;4984134;28;20026;-59
2021/08/21 02:25:14;;;;;;;6.57;2.03;;;;;;;;;;4978296;28;20069;-58
2021/08/21 02:27:44;;;;;;;7.30;2.10;;;;;;;;;;4973910;28;20054;-59
2021/08/21 02:30:10;;;;;;;7.38;2.00;;;;;;;;;;4976761;28;20080;-58
2021/08/21 02:32:37;;;;;;;5.72;2.15;;;;;;;;;;4974841;28;20039;-59
2021/08/21 02:35:03;;;;;;;10.18;2.38;;;;;;;;;;4979786;28;20116;-58
2021/08/21 02:37:28;;;;;;;9.18;2.40;;;;;;;;;;4979422;28;20428;-58
2021/08/21 02:39:54;;;;;;;5.93;2.25;;;;;;;;;;4976282;28;20042;-58
2021/08/21 02:42:19;;;;;;;5.88;2.15;;;;;;;;;;4987501;28;20397;-58
2021/08/21 02:44:45;;;;;;;13.98;2.60;;;;;;;;;;4985500;28;20675;-58
2021/08/21 02:47:11;;;;;;;5.60;2.20;;;;;;;;;;4980621;28;20070;-58
2021/08/21 02:49:36;;;;;;;6.15;2.17;;;;;;;;;;4978596;28;20038;-59
2021/08/21 02:52:03;;;;;;;7.32;1.98;;;;;;;;;;4978646;28;20057;-58
2021/08/21 02:54:29;;;;;;;6.80;2.10;;;;;;;;;;4974358;28;20034;-58
2021/08/21 02:56:54;;;;;;;6.95;2.10;;;;;;;;;;4974271;28;20443;-58
2021/08/21 02:59:20;;;;;;;10.10;2.40;;;;;;;;;;4974753;28;20127;-59
2021/08/21 03:01:46;;;;;;;4.28;2.25;;;;;;;;;;4979739;28;20113;-58
2021/08/21 03:04:12;;;;;;;4.95;2.10;;;;;;;;;;4971967;28;20030;-59
2021/08/21 03:06:38;;;;;;;11.90;2.95;;;;;;;;;;4978900;28;20441;-58
2021/08/21 03:09:03;;;;;;;6.38;2.22;;;;;;;;;;4976304;28;20041;-58
2021/08/21 03:11:29;;;;;;;7.93;2.20;;;;;;;;;;4983552;28;20034;-58
2021/08/21 03:13:55;;;;;;;5.43;2.00;;;;;;;;;;4972006;28;20039;-58
2021/08/21 03:16:20;;;;;;;10.30;2.03;;;;;;;;;;4973763;28;20324;-58
2021/08/21 03:18:46;;;;;;;5.85;2.10;;;;;;;;;;4976250;28;20031;-58
2021/08/21 03:21:11;;;;;;;5.15;2.40;;;;;;;;;;4971703;28;20141;-59
2021/08/21 03:23:38;;;;;;;6.90;2.33;;;;;;;;;;4978164;28;20126;-58
2021/08/21 03:26:04;;;;;;;6.07;2.20;;;;;;;;;;4980315;28;20069;-58
2021/08/21 03:28:30;;;;;;;5.32;1.90;;;;;;;;;;4982131;28;20035;-58
2021/08/21 03:30:55;;;;;;;7.10;2.20;;;;;;;;;;4977822;28;20065;-59
2021/08/21 03:33:22;;;;;;;7.65;2.83;;;;;;;;;;4975298;28;20156;-58
2021/08/21 03:35:47;;;;;;;4.20;2.00;;;;;;;;;;4979297;28;20402;-58
2021/08/21 03:38:13;;;;;;;7.20;2.45;;;;;;;;;;4973977;28;20066;-58
2021/08/21 03:40:39;;;;;;;8.65;2.75;;;;;;;;;;4978920;28;20038;-58
2021/08/21 03:43:04;;;;;;;9.10;2.42;;;;;;;;;;4974355;28;20041;-58
2021/08/21 03:45:30;;;;;;;4.63;1.63;;;;;;;;;;4981519;28;20481;-58
2021/08/21 03:47:55;;;;;;;6.78;2.50;;;;;;;;;;4977322;28;20413;-58
2021/08/21 03:50:21;;;;;;;8.93;1.80;;;;;;;;;;4980970;28;20055;-58
2021/08/21 03:52:46;;;;;;;13.82;3.13;;;;;;;;;;4976911;28;20088;-58
2021/08/21 03:55:12;;;;;;;4.38;2.20;;;;;;;;;;4982282;28;20038;-59
2021/08/21 03:57:37;;;;;;;8.25;2.13;;;;;;;;;;4980753;28;20405;-59
2021/08/21 04:00:04;;;;;;;5.43;2.08;;;;;;;;;;4983715;28;20018;-58
2021/08/21 04:02:29;;;;;;;7.00;1.85;;;;;;;;;;4978483;28;20037;-59
2021/08/21 04:04:55;;;;;;;7.43;2.15;;;;;;;;;;4983030;28;20038;-58
2021/08/21 04:07:20;;;;;;;7.32;2.15;;;;;;;;;;4972836;28;20037;-58
2021/08/21 04:09:46;;;;;;;3.92;1.67;;;;;;;;;;4982667;28;20038;-58
2021/08/21 04:12:16;;;;;;;6.65;2.10;;;;;;;;;;4975979;28;20065;-58
2021/08/21 04:14:41;;;;;;;4.63;2.28;;;;;;;;;;4980248;28;20477;-58
2021/08/21 04:17:07;;;;;;;3.70;1.83;;;;;;;;;;4985166;28;20041;-58
2021/08/21 04:19:32;;;;;;;5.55;2.05;;;;;;;;;;4984107;28;20034;-58
2021/08/21 04:21:58;;;;;;;7.93;1.98;;;;;;;;;;4985317;28;20030;-59
2021/08/21 04:24:23;;;;;;;9.38;2.40;;;;;;;;;;4977908;28;20038;-59
2021/08/21 04:26:49;;;;;;;3.92;1.92;;;;;;;;;;4979690;28;20805;-58
2021/08/21 04:29:14;;;;;;;6.88;1.88;;;;;;;;;;4983701;28;20082;-58
2021/08/21 04:31:40;;;;;;;3.40;1.83;;;;;;;;;;4981403;28;20066;-59
2021/08/21 04:34:05;;;;;;;5.57;2.03;;;;;;;;;;4975955;28;20030;-59
2021/08/21 04:36:31;;;;;;;6.95;2.00;;;;;;;;;;4978680;28;20042;-59
2021/08/21 04:38:56;;;;;;;5.60;1.73;;;;;;;;;;4979391;28;20117;-59
2021/08/21 04:41:22;;;;;;;5.55;1.75;;;;;;;;;;4987021;28;20192;-58
2021/08/21 04:43:48;;;;;;;5.13;1.83;;;;;;;;;;4976685;28;20082;-58
2021/08/21 04:46:13;;;;;;;4.43;1.95;;;;;;;;;;4985553;28;20052;-57
2021/08/21 04:48:39;;;;;;;5.28;2.08;;;;;;;;;;4981637;28;20086;-58
2021/08/21 04:51:04;;;;;;;5.88;2.00;;;;;;;;;;4979556;28;20042;-58
2021/08/21 04:53:30;;;;;;;6.95;1.88;;;;;;;;;;4983025;28;20485;-58
2021/08/21 04:55:55;;;;;;;7.53;2.00;;;;;;;;;;4977818;28;20043;-58
2021/08/21 04:58:21;;;;;;;5.32;1.85;;;;;;;;;;4974630;28;20018;-58
2021/08/21 05:00:46;;;;;;;6.65;2.05;;;;;;;;;;4984328;28;20400;-58
2021/08/21 05:03:12;;;;;;;6.22;1.98;;;;;;;;;;4984845;28;20049;-58
2021/08/21 05:05:37;;;;;;;5.53;1.98;;;;;;;;;;4980312;28;20038;-58
2021/08/21 05:08:03;;;;;;;7.40;2.00;;;;;;;;;;4983946;28;20022;-58
2021/08/21 05:10:29;;;;;;;7.95;2.42;;;;;;;;;;4984742;28;20030;-58
2021/08/21 05:12:54;;;;;;;6.07;1.92;;;;;;;;;;4976636;28;20413;-58
2021/08/21 05:15:20;;;;;;;4.95;2.05;;;;;;;;;;4978334;28;20101;-58
2021/08/21 05:17:48;;;;;;;8.02;1.70;;;;;;;;;;4981149;28;20027;-58
2021/08/21 05:25:14;;;;;;;4.20;1.58;;;;;;;;;;4978191;28;20026;-58
2021/08/21 05:27:39;;;;;;;6.95;1.42;;;;;;;;;;4978799;28;20049;-59
2021/08/21 05:30:07;;;;;;;4.22;1.30;;;;;;;;;;4975713;28;20418;-58
2021/08/21 05:32:35;;;;;;;6.15;1.00;;;;;;;;;;4980808;28;20212;-58
2021/08/21 05:35:02;;;;;;;3.10;0.90;;;;;;;;;;4978490;28;20089;-58
2021/08/21 05:37:27;;;;;;;3.83;1.13;;;;;;;;;;4983082;28;20104;-59
2021/08/21 05:39:53;;;;;;;3.78;1.40;;;;;;;;;;4980015;28;20089;-59
2021/08/21 05:42:19;;;;;;;2.17;0.80;;;;;;;;;;4980892;28;20054;-59
2021/08/21 05:44:44;;;;;;;4.03;1.10;;;;;;;;;;4987557;28;20124;-59
2021/08/21 05:47:10;;;;;;;5.13;0.82;;;;;;;;;;4975918;28;20232;-58
2021/08/21 05:49:36;;;;;;;5.70;0.80;;;;;;;;;;4981734;28;20042;-58
2021/08/21 05:52:01;;;;;;;1.60;0.85;;;;;;;;;;4981918;28;20049;-59
2021/08/21 05:54:27;;;;;;;2.25;0.80;;;;;;;;;;4989031;28;20030;-58
2021/08/21 05:56:52;;;;;;;1.40;0.77;;;;;;;;;;4984492;28;20038;-58
2021/08/21 05:59:18;;;;;;;2.13;0.95;;;;;;;;;;4984022;28;20077;-58
2021/08/21 06:01:43;;;;;;;1.63;0.60;;;;;;;;;;4985492;28;20465;-58
2021/08/21 06:04:09;;;;;;;2.88;0.73;;;;;;;;;;4982951;28;20065;-58
2021/08/21 06:06:36;;;;;;;3.60;0.68;;;;;;;;;;4984080;28;20080;-58
2021/08/21 06:09:02;;;;;;;1.83;0.60;;;;;;;;;;4983886;28;20118;-58
2021/08/21 06:11:28;;;;;;;1.85;0.52;;;;;;;;;;4984046;28;20051;-59
2021/08/21 06:13:54;;;;;;;2.63;0.63;;;;;;;;;;4983139;28;20432;-59
2021/08/21 06:16:19;;;;;;;2.40;0.45;;;;;;;;;;4987469;28;20464;-59
2021/08/21 06:18:45;;;;;;;4.18;0.95;;;;;;;;;;4985179;28;20475;-59
2021/08/21 06:21:11;;;;;;;2.50;0.50;;;;;;;;;;4981740;28;20034;-59
2021/08/21 06:23:36;;;;;;;2.53;0.63;;;;;;;;;;4971311;28;20472;-59
2021/08/21 06:26:02;;;;;;;2.58;0.40;;;;;;;;;;4986158;28;20041;-58
2021/08/21 06:28:27;;;;;;;0.80;0.40;;;;;;;;;;4981740;28;20121;-59
2021/08/21 06:30:53;;;;;;;2.15;0.50;;;;;;;;;;4979428;28;20399;-59
2021/08/21 06:33:19;;;;;;;2.08;0.32;;;;;;;;;;4973873;28;20038;-59
2021/08/21 06:35:44;;;;;;;1.27;0.25;;;;;;;;;;4983957;28;20042;-59
2021/08/21 06:38:10;;;;;;;1.48;0.20;;;;;;;;;;4978191;28;20019;-59
2021/08/21 06:40:35;;;;;;;5.05;0.28;;;;;;;;;;4975557;28;20042;-59
2021/08/21 06:43:01;;;;;;;0.38;0.20;;;;;;;;;;4975360;28;20050;-58
2021/08/21 06:45:26;;;;;;;0.77;0.10;;;;;;;;;;4977055;28;20118;-59
2021/08/21 06:47:55;;;;;;;1.90;0.30;;;;;;;;;;4978085;28;20131;-59
2021/08/21 06:50:20;;;;;;;5.20;0.40;;;;;;;;;;4974032;28;20188;-59
2021/08/21 06:52:46;;;;;;;0.60;0.10;;;;;;;;;;4977494;28;20512;-58
2021/08/21 06:55:12;;;;;;;0.80;0.30;;;;;;;;;;4980266;28;20123;-59
2021/08/21 06:57:38;;;;;;;1.73;0.28;;;;;;;;;;4976375;28;20031;-59
2021/08/21 07:00:04;;;;;;;2.28;0.20;;;;;;;;;;4978082;28;20035;-59
2021/08/21 07:02:29;;;;;;;0.77;0.30;;;;;;;;;;4976341;28;20039;-59
2021/08/21 07:04:55;;;;;;;2.17;0.28;;;;;;;;;;4973901;28;20494;-59
2021/08/21 07:07:20;;;;;;;0.80;0.30;;;;;;;;;;4976503;28;20241;-59
2021/08/21 07:09:46;;;;;;;2.80;0.25;;;;;;;;;;4971177;28;20650;-59
2021/08/21 07:12:11;;;;;;;5.93;0.28;;;;;;;;;;4974288;28;20027;-59
2021/08/21 07:14:37;;;;;;;2.35;0.25;;;;;;;;;;4977704;28;20066;-59
2021/08/21 07:17:02;;;;;;;2.70;0.30;;;;;;;;;;4976129;28;20039;-59
2021/08/21 07:19:28;;;;;;;1.23;0.40;;;;;;;;;;4981263;28;20034;-58
2021/08/21 07:21:54;;;;;;;0.50;0.30;;;;;;;;;;4975319;28;20062;-58
2021/08/21 07:24:21;;;;;;;2.60;0.60;;;;;;;;;;4983824;28;20121;-58
2021/08/21 07:26:46;;;;;;;1.45;0.50;;;;;;;;;;4975386;28;20030;-58
2021/08/21 07:29:12;;;;;;;2.80;0.70;;;;;;;;;;4978311;28;20263;-59
2021/08/21 07:31:38;;;;;;;1.63;0.45;;;;;;;;;;4973183;28;20054;-59
2021/08/21 07:34:03;;;;;;;3.28;0.90;;;;;;;;;;4980914;28;20066;-59
2021/08/21 07:36:29;;;;;;;2.15;0.68;;;;;;;;;;4981205;28;20038;-59
2021/08/21 07:38:54;;;;;;;5.00;1.20;;;;;;;;;;4974853;28;20034;-59
2021/08/21 07:41:20;;;;;;;1.65;0.40;;;;;;;;;;4977109;28;20529;-59
2021/08/21 07:43:46;;;;;;;2.45;0.50;;;;;;;;;;4973015;28;20081;-59
2021/08/21 07:46:12;;;;;;;1.98;0.60;;;;;;;;;;4974615;28;20089;-58
2021/08/21 07:48:37;;;;;;;4.35;0.60;;;;;;;;;;4974506;28;20026;-59
2021/08/21 07:51:04;;;;;;;3.92;0.43;;;;;;;;;;4979387;28;20034;-59
2021/08/21 07:53:30;;;;;;;0.63;0.32;;;;;;;;;;4979967;28;20034;-59
2021/08/21 07:55:55;;;;;;;2.83;0.32;;;;;;;;;;4976270;28;20045;-58
2021/08/21 07:58:21;;;;;;;1.65;0.45;;;;;;;;;;4983292;28;20437;-59
2021/08/21 08:00:46;;;;;;;1.35;0.43;;;;;;;;;;4987755;28;20044;-59
2021/08/21 08:03:14;;;;;;;2.90;0.43;;;;;;;;;;4980755;28;20488;-58
2021/08/21 08:05:41;;;;;;;0.85;0.10;;;;;;;;;;4986305;28;20042;-58
2021/08/21 08:08:07;;;;;;;1.70;0.20;;;;;;;;;;4984860;28;20105;-59
2021/08/21 08:10:32;;;;;;;2.15;0.22;;;;;;;;;;4982956;28;20526;-59
2021/08/21 08:12:58;;;;;;;5.88;0.40;;;;;;;;;;4983200;28;20039;-59
2021/08/21 08:15:23;;;;;;;1.30;0.40;;;;;;;;;;4989132;28;20022;-59
2021/08/21 08:17:49;;;;;;;3.42;0.30;;;;;;;;;;4983601;28;20061;-58
2021/08/21 08:20:14;;;;;;;4.80;0.30;;;;;;;;;;4985940;28;20034;-58
2021/08/21 08:22:41;;;;;;;5.25;0.32;;;;;;;;;;4980962;28;20417;-59
2021/08/21 08:25:07;;;;;;;0.60;0.20;;;;;;;;;;4983870;28;20035;-59
2021/08/21 08:27:33;;;;;;;1.52;0.13;;;;;;;;;;4983363;28;20146;-59
2021/08/21 08:29:59;;;;;;;1.02;0.20;;;;;;;;;;4978176;28;20533;-59
2021/08/21 08:32:24;;;;;;;3.83;0.47;;;;;;;;;;4981157;28;20046;-59
2021/08/21 08:34:50;;;;;;;4.45;0.20;;;;;;;;;;4979926;28;20032;-59
2021/08/21 08:37:15;;;;;;;1.45;0.20;;;;;;;;;;4979972;28;20473;-58
2021/08/21 08:39:41;;;;;;;3.00;0.30;;;;;;;;;;4983623;28;20125;-59
2021/08/21 08:42:08;;;;;;;2.55;0.20;;;;;;;;;;4980357;28;20520;-59
2021/08/21 08:44:35;;;;;;;5.97;0.30;;;;;;;;;;4979399;28;20042;-59
2021/08/21 08:47:01;;;;;;;0.40;0.10;;;;;;;;;;4979876;28;20030;-58
2021/08/21 08:49:28;;;;;;;8.10;0.20;;;;;;;;;;4976051;28;20034;-58
2021/08/21 08:51:54;;;;;;;0.93;0.15;;;;;;;;;;4982055;28;20061;-59
2021/08/21 08:54:20;;;;;;;6.82;0.32;;;;;;;;;;4983551;28;20120;-57
2021/08/21 08:56:46;;;;;;;4.90;0.10;;;;;;;;;;4979607;28;20026;-59
2021/08/21 08:59:11;;;;;;;1.42;0.15;;;;;;;;;;4979618;28;20026;-59
2021/08/21 09:01:40;;;;;;;2.75;0.17;;;;;;;;;;4987558;28;20523;-59
2021/08/21 09:04:23;;;;;;;0.93;0.20;;;;;;;;;;4980672;28;20079;-59
2021/08/21 09:06:50;;;;;;;1.33;0.10;;;;;;;;;;4977549;28;20030;-59
2021/08/21 09:09:18;;;;;;;2.17;0.38;;;;;;;;;;4978007;28;20034;-59
2021/08/21 09:11:50;;;;;;;2.28;0.10;;;;;;;;;;4976005;28;20030;-59
2021/08/21 09:14:16;;;;;;;;;;;;;;;;;;4982333;28;20073;-59
2021/08/21 09:16:41;;;;;;;0.50;0.10;;;;;;;;;;4978187;28;20386;-60
2021/08/21 09:19:07;;;;;;;0.68;0.20;;;;;;;;;;4978198;28;20046;-59
2021/08/21 09:21:33;;;;;;;1.17;0.10;;;;;;;;;;4977978;28;20108;-57
2021/08/21 09:23:59;;;;;;;2.38;0.20;;;;;;;;;;4974147;28;20038;-58
2021/08/21 09:26:36;;;;;;;0.80;0.20;;;;;;;;;;4974719;28;20042;-58
2021/08/21 09:29:03;;;;;;;0.73;0.10;;;;;;;;;;4971538;28;20041;-58
2021/08/21 09:31:31;;;;;;;0.13;0.00;;;;;;;;;;4975226;28;20055;-57
2021/08/21 09:34:00;;;;;;;0.22;0.10;;;;;;;;;;4977319;28;20129;-58
2021/08/21 09:36:36;;;;;;;4.82;0.20;;;;;;;;;;4982898;28;20052;-57
2021/08/21 09:39:07;;;;;;;1.05;0.13;;;;;;;;;;4974825;28;20047;-57
2021/08/21 09:41:56;;;;;;;1.83;0.10;;;;;;;;;;4976455;28;20022;-58
2021/08/21 09:44:32;;;;;;;3.60;0.20;;;;;;;;;;4973588;28;20062;-58
2021/08/21 09:47:08;;;;;;;2.15;0.17;;;;;;;;;;4983413;28;20490;-58
2021/08/21 09:49:33;;;;;;;0.55;0.10;;;;;;;;;;4978002;28;20034;-58
2021/08/21 09:52:05;;;;;;;0.55;0.10;;;;;;;;;;4973184;28;20042;-57
2021/08/21 09:54:31;;;;;;;;;;;;;;;;;;4975444;28;20120;-58
2021/08/21 09:56:57;;;;;;;2.55;0.10;;;;;;;;;;4983733;28;19965;-58
2021/08/21 09:59:42;;;;;;;1.45;0.20;;;;;;;;;;4974304;28;20120;-58
2021/08/21 10:02:14;;;;;;;1.70;0.28;;;;;;;;;;4977173;28;20030;-58
2021/08/21 10:04:41;;;;;;;0.30;0.08;;;;;;;;;;4982439;28;20121;-58
2021/08/21 10:07:12;;;;;;;1.60;0.20;;;;;;;;;;4974912;28;20061;-58
2021/08/21 10:09:39;;;;;;;1.30;0.25;;;;;;;;;;4974700;28;20038;-57
2021/08/21 10:12:07;;;;;;;0.63;0.30;;;;;;;;;;4977419;28;20113;-58
2021/08/21 10:14:33;;;;;;;1.38;0.20;;;;;;;;;;4981689;28;20489;-58
2021/08/21 10:17:01;;;;;;;2.03;0.32;;;;;;;;;;4977613;28;20058;-58
2021/08/21 10:19:26;;;;;;;1.08;0.20;;;;;;;;;;4976542;28;20065;-58
2021/08/21 10:21:55;;;;;;;1.27;0.22;;;;;;;;;;4975252;28;20073;-58
2021/08/21 10:24:35;;;;;;;2.25;0.50;;;;;;;;;;4983527;28;20496;-58
2021/08/21 10:27:15;;;;;;;5.85;0.38;;;;;;;;;;4976321;28;20029;-58
2021/08/21 10:29:59;;;;;;;2.28;0.47;;;;;;;;;;4977037;28;20026;-58
2021/08/21 10:32:33;;;;;;;4.60;0.52;;;;;;;;;;4973984;28;20034;-58
2021/08/21 10:35:00;;;;;;;2.08;0.80;;;;;;;;;;4978515;28;20045;-58
2021/08/21 10:37:38;;;;;;;5.13;0.30;;;;;;;;;;4982707;28;20049;-58
2021/08/21 10:40:25;;;;;;;1.17;0.30;;;;;;;;;;4979252;28;20041;-58
2021/08/21 10:42:59;;;;;;;1.52;0.47;;;;;;;;;;4985247;28;20023;-59
2021/08/21 10:45:40;;;;;;;3.50;0.35;;;;;;;;;;4983699;28;20117;-58
2021/08/21 10:48:28;;;;;;;2.85;0.60;;;;;;;;;;4976243;28;20030;-59
2021/08/21 10:50:53;;;;;;;1.13;0.47;;;;;;;;;;4980441;28;20034;-58
2021/08/21 10:53:25;;;;;;;6.55;0.50;;;;;;;;;;4982299;28;20525;-58
2021/08/21 10:55:51;;;;;;;1.77;0.47;;;;;;;;;;4979452;28;20103;-58
2021/08/21 10:58:21;;;;;;;5.32;1.13;;;;;;;;;;4981610;28;20031;-58
2021/08/21 11:00:48;;;;;;;1.88;0.60;;;;;;;;;;4972898;28;20058;-59
2021/08/21 11:03:16;;;;;;;3.50;0.60;;;;;;;;;;4970863;28;20038;-59
2021/08/21 11:06:30;;;;;;;2.80;0.50;;;;;;;;;;4974761;28;20026;-58
2021/08/21 11:09:07;;;;;;;1.27;0.40;;;;;;;;;;5004245;28;20038;-58
2021/08/21 11:11:38;;;;;;;1.73;0.68;;;;;;;;;;5002463;28;20045;-59
2021/08/21 11:14:24;;;;;;;3.38;0.60;;;;;;;;;;4981394;28;20037;-59
2021/08/21 11:16:54;;;;;;;4.43;0.47;;;;;;;;;;4976289;28;20054;-57
2021/08/21 11:19:25;;;;;;;2.72;0.68;;;;;;;;;;4969867;28;20450;-56
2021/08/21 11:21:52;;;;;;;2.38;0.60;;;;;;;;;;4978100;28;20469;-59
2021/08/21 11:24:28;;;;;;;1.13;0.40;;;;;;;;;;4979377;28;20038;-59
2021/08/21 11:27:22;;;;;;;3.97;0.75;;;;;;;;;;4975380;28;20026;-58
2021/08/21 11:30:06;;;;;;;4.30;1.05;;;;;;;;;;4974589;28;20070;-59
2021/08/21 11:32:43;;;;;;;5.25;1.30;;;;;;;;;;4974942;28;20520;-57
2021/08/21 11:35:16;;;;;;;5.53;1.08;;;;;;;;;;4976607;28;20053;-58
2021/08/21 11:37:47;;;;;;;6.50;1.08;;;;;;;;;;4982437;28;20103;-58
2021/08/21 11:40:15;;;;;;;6.65;1.55;;;;;;;;;;4980092;28;20402;-58
2021/08/21 11:43:11;;;;;;;7.18;1.35;;;;;;;;;;4985831;28;20120;-59
2021/08/21 11:45:37;;;;;;;10.90;1.38;;;;;;;;;;4977802;28;20047;-58
2021/08/21 11:48:04;;;;;;;5.97;1.13;;;;;;;;;;4978705;28;20137;-58
2021/08/21 11:50:35;;;;;;;6.53;1.40;;;;;;;;;;4976755;28;20034;-56
2021/08/21 11:53:10;;;;;;;3.15;1.17;;;;;;;;;;4970847;28;20110;-58
2021/08/21 11:55:39;;;;;;;6.75;1.40;;;;;;;;;;4979434;28;20401;-60
2021/08/21 11:58:06;;;;;;;7.32;1.83;;;;;;;;;;4972320;28;20031;-56
2021/08/21 12:00:35;;;;;;;11.02;2.45;;;;;;;;;;4983478;28;20061;-55
2021/08/21 12:03:08;;;;;;;13.18;1.88;;;;;;;;;;4977615;28;20085;-54
2021/08/21 12:05:34;;;;;;;5.97;1.45;;;;;;;;;;4973550;28;20038;-51
2021/08/21 12:08:13;;;;;;;5.05;1.40;;;;;;;;;;4977941;28;20089;-52
2021/08/21 12:11:02;;;;;;;6.90;1.80;;;;;;;;;;4978899;28;20057;-50
2021/08/21 12:13:31;;;;;;;6.13;1.38;;;;;;;;;;4974881;28;20034;-53
2021/08/21 12:16:03;;;;;;;11.02;1.88;;;;;;;;;;4977616;28;20398;-51
2021/08/21 12:18:32;;;;;;;6.22;1.85;;;;;;;;;;4971811;28;20019;-50
2021/08/21 12:20:58;;;;;;;13.65;2.17;;;;;;;;;;4977446;28;20433;-52
2021/08/21 12:23:24;;;;;;;7.88;1.92;;;;;;;;;;4983967;28;20038;-50
2021/08/21 12:25:52;;;;;;;8.00;1.95;;;;;;;;;;4974911;28;20037;-50
2021/08/21 12:28:21;;;;;;;9.07;2.10;;;;;;;;;;4971786;28;20113;-51
2021/08/21 12:31:05;;;;;;;6.78;2.10;;;;;;;;;;4978895;28;20371;-52
2021/08/21 12:33:36;;;;;;;10.80;2.13;;;;;;;;;;4971511;28;20482;-49
2021/08/21 12:36:28;;;;;;;15.18;2.78;;;;;;;;;;4976050;28;20042;-51
2021/08/21 12:39:13;;;;;;;;;;;;;;;;;;4979967;28;20117;-50
2021/08/21 12:42:00;;;;;;;10.18;2.58;;;;;;;;;;4983358;28;19964;-50
2021/08/21 12:44:33;;;;;;;12.57;2.80;;;;;;;;;;4977375;28;20394;-48
2021/08/21 12:47:16;;;;;;;20.30;3.08;;;;;;;;;;4977468;28;20505;-50
2021/08/21 12:49:46;;;;;;;13.90;3.53;;;;;;;;;;4976583;28;20583;-50
2021/08/21 12:52:13;;;;;;;22.45;2.88;;;;;;;;;;4983137;28;20560;-54
2021/08/21 12:54:42;;;;;;;31.55;4.05;;;;;;;;;;4978509;28;20061;-54
2021/08/21 12:57:16;;;;;;;13.40;3.17;;;;;;;;;;4979616;28;20038;-54
2021/08/21 12:59:43;;;;;;;15.98;3.75;;;;;;;;;;4982701;28;20038;-52
2021/08/21 13:02:11;;;;;;;20.30;3.40;;;;;;;;;;4976862;28;20038;-51
2021/08/21 13:04:37;;;;;;;13.95;4.82;;;;;;;;;;4976903;28;20090;-52
2021/08/21 13:07:06;;;;;;;12.90;2.95;;;;;;;;;;4978366;28;20493;-49
2021/08/21 13:09:32;;;;;;;16.60;2.78;;;;;;;;;;4976627;28;20121;-51
2021/08/21 13:11:58;;;;;;;9.90;2.70;;;;;;;;;;4980683;28;20114;-51
2021/08/21 13:14:24;;;;;;;14.93;2.97;;;;;;;;;;4978712;28;20054;-49
2021/08/21 13:16:50;;;;;;;14.25;3.67;;;;;;;;;;4979841;28;20030;-51
2021/08/21 13:19:16;;;;;;;15.65;3.83;;;;;;;;;;4979912;28;20035;-49
2021/08/21 13:21:42;;;;;;;15.30;3.35;;;;;;;;;;4977371;28;20110;-49
2021/08/21 13:24:07;;;;;;;11.63;3.17;;;;;;;;;;4982372;28;20034;-50
2021/08/21 13:26:36;;;;;;;13.35;3.35;;;;;;;;;;4976580;28;20081;-51
2021/08/21 13:29:05;;;;;;;46.63;4.85;;;;;;;;;;4981970;28;20026;-51
2021/08/21 13:31:32;;;;;;;32.38;5.00;;;;;;;;;;4978915;28;20051;-53
2021/08/21 13:34:04;;;;;;;55.20;4.20;;;;;;;;;;4976359;28;20027;-51
2021/08/21 13:36:30;;;;;;;27.23;5.15;;;;;;;;;;4977572;28;20034;-53
2021/08/21 13:38:55;;;;;;;16.63;3.88;;;;;;;;;;4982189;28;20406;-51
2021/08/21 13:41:21;;;;;;;11.02;3.20;;;;;;;;;;4977633;28;20089;-49
2021/08/21 13:43:46;;;;;;;15.35;3.05;;;;;;;;;;4958704;28;20030;-51
2021/08/21 13:46:12;;;;;;;10.70;3.33;;;;;;;;;;4983832;28;20076;-51
2021/08/21 13:48:37;;;;;;;5.63;1.77;;;;;;;;;;4980234;28;20036;-50
2021/08/21 13:51:03;;;;;;;12.50;1.60;;;;;;;;;;4981317;28;20023;-54
2021/08/21 13:53:28;;;;;;;5.80;1.30;;;;;;;;;;4974743;28;20042;-51
2021/08/21 13:55:54;;;;;;;7.25;1.80;;;;;;;;;;4981702;28;20417;-51
2021/08/21 13:58:19;;;;;;;7.93;1.73;;;;;;;;;;4980358;28;20030;-52
2021/08/21 14:00:45;;;;;;;7.47;1.90;;;;;;;;;;4985918;28;20026;-50
2021/08/21 14:03:11;;;;;;;5.95;1.98;;;;;;;;;;4983117;28;20038;-53
2021/08/21 14:05:37;;;;;;;13.93;2.80;;;;;;;;;;4978181;28;20148;-50
2021/08/21 14:08:05;;;;;;;10.27;2.30;;;;;;;;;;4977655;28;20041;-49
2021/08/21 14:10:31;;;;;;;10.75;3.17;;;;;;;;;;4979590;28;20076;-49
2021/08/21 14:12:57;;;;;;;12.43;2.88;;;;;;;;;;4976340;28;20034;-49
2021/08/21 14:15:22;;;;;;;13.38;2.95;;;;;;;;;;4985643;28;20109;-49
2021/08/21 14:17:48;;;;;;;36.60;5.75;;;;;;;;;;4971966;28;20022;-54
2021/08/21 14:20:13;;;;;;;33.50;3.72;;;;;;;;;;4977081;28;20022;-54
2021/08/21 14:22:40;;;;;;;21.88;4.30;;;;;;;;;;4978041;28;20481;-52
2021/08/21 14:25:06;;;;;;;12.00;2.72;;;;;;;;;;4971694;28;20429;-48
2021/08/21 14:27:31;;;;;;;11.07;3.53;;;;;;;;;;4978786;28;20031;-49
2021/08/21 14:29:57;;;;;;;8.82;2.67;;;;;;;;;;4976131;28;20081;-51
2021/08/21 14:32:23;;;;;;;6.30;1.83;;;;;;;;;;4976988;28;20115;-48
2021/08/21 14:34:49;;;;;;;7.05;2.30;;;;;;;;;;4983281;28;20069;-48
2021/08/21 14:37:14;;;;;;;7.45;1.70;;;;;;;;;;4973012;28;20054;-51
2021/08/21 14:39:40;;;;;;;5.25;1.58;;;;;;;;;;4974030;28;20105;-49
2021/08/21 14:42:06;;;;;;;5.05;1.83;;;;;;;;;;4980178;28;20031;-49
2021/08/21 14:44:31;;;;;;;5.13;1.73;;;;;;;;;;4974250;28;20588;-50
2021/08/21 14:46:58;;;;;;;8.88;1.42;;;;;;;;;;4974858;28;20060;-52
2021/08/21 14:49:25;;;;;;;8.55;1.50;;;;;;;;;;4981977;28;20038;-48
2021/08/21 14:51:54;;;;;;;3.08;1.02;;;;;;;;;;4971611;28;20453;-49